createdAt,value
2023-04-15T00:01:42.367Z,66.86
2023-04-15T00:04:08.771Z,67.70
2023-04-15T00:06:37.104Z,67.53
2023-04-15T00:09:03.732Z,66.50
2023-04-15T00:11:30.318Z,66.78
2023-04-15T00:13:56.790Z,66.47
2023-04-15T00:16:24.757Z,66.22
2023-04-15T00:18:51.146Z,66.45
2023-04-15T00:21:17.562Z,66.22
2023-04-15T00:23:43.922Z,67.33
2023-04-15T00:26:10.291Z,66.56
2023-04-15T00:28:36.656Z,66.48
2023-04-15T00:31:03.080Z,66.37
2023-04-15T00:33:30.827Z,65.82
2023-04-15T00:35:57.353Z,66.23
2023-04-15T00:38:23.711Z,66.01
2023-04-15T00:40:50.130Z,65.19
2023-04-15T00:43:16.873Z,65.41
2023-04-15T00:45:43.299Z,66.05
2023-04-15T00:48:10.746Z,66.11
2023-04-15T00:50:38.636Z,65.79
2023-04-15T00:53:05.031Z,64.93
2023-04-15T00:55:31.482Z,65.67
2023-04-15T00:57:58.000Z,65.01
2023-04-15T01:00:24.792Z,65.81
2023-04-15T01:02:51.276Z,65.99
2023-04-15T01:05:17.945Z,66.17
2023-04-15T01:07:46.944Z,67.17
2023-04-15T01:10:13.317Z,66.33
2023-04-15T01:12:40.326Z,65.95
2023-04-15T01:15:08.486Z,64.69
2023-04-15T01:17:35.174Z,65.48
2023-04-15T01:20:02.099Z,66.69
2023-04-15T01:22:28.633Z,66.35
2023-04-15T01:25:03.952Z,66.61
2023-04-15T01:27:32.488Z,66.33
2023-04-15T01:29:58.851Z,67.11
2023-04-15T01:32:25.407Z,67.00
2023-04-15T01:34:51.756Z,66.15
2023-04-15T01:37:18.339Z,65.94
2023-04-15T01:39:44.772Z,66.69
2023-04-15T01:42:11.231Z,65.82
2023-04-15T01:44:38.916Z,66.73
2023-04-15T01:47:05.306Z,66.38
2023-04-15T01:49:31.952Z,66.46
2023-04-15T01:51:58.292Z,67.22
2023-04-15T01:54:24.716Z,68.08
2023-04-15T01:56:51.122Z,67.11
2023-04-15T01:59:17.477Z,67.02
2023-04-15T02:01:45.213Z,66.96
2023-04-15T02:04:11.733Z,66.73
2023-04-15T02:06:38.112Z,66.45
2023-04-15T02:09:04.483Z,68.51
2023-04-15T02:11:30.820Z,67.23
2023-04-15T02:13:57.215Z,68.32
2023-04-15T02:16:23.623Z,68.78
2023-04-15T02:18:51.314Z,67.55
2023-04-15T02:21:17.747Z,67.87
2023-04-15T02:23:44.350Z,67.68
2023-04-15T02:26:10.700Z,68.68
2023-04-15T02:28:37.032Z,69.60
2023-04-15T02:31:05.716Z,69.94
2023-04-15T02:33:32.099Z,69.58
2023-04-15T02:35:59.789Z,68.33
2023-04-15T02:38:26.178Z,68.56
2023-04-15T02:40:52.553Z,67.51
2023-04-15T02:43:18.927Z,68.70
2023-04-15T02:45:46.096Z,68.15
2023-04-15T02:48:12.517Z,68.91
2023-04-15T02:50:39.762Z,68.67
2023-04-15T02:53:07.786Z,67.38
2023-04-15T02:55:34.152Z,68.71
2023-04-15T02:58:00.501Z,68.83
2023-04-15T03:00:27.311Z,68.52
2023-04-15T03:02:58.916Z,68.41
2023-04-15T03:05:25.761Z,70.68
2023-04-15T03:07:52.995Z,69.72
2023-04-15T03:10:21.004Z,68.80
2023-04-15T03:12:47.578Z,72.44
2023-04-15T03:15:14.309Z,69.82
2023-04-15T03:17:40.804Z,70.66
2023-04-15T03:20:07.853Z,71.15
2023-04-15T03:22:34.435Z,69.54
2023-04-15T03:25:00.775Z,67.89
2023-04-15T03:27:28.473Z,69.50
2023-04-15T03:29:54.879Z,69.56
2023-04-15T03:32:21.281Z,69.49
2023-04-15T03:34:47.668Z,69.99
2023-04-15T03:37:14.104Z,71.94
2023-04-15T03:39:40.439Z,71.52
2023-04-15T03:42:06.789Z,71.37
2023-04-15T03:44:34.498Z,70.61
2023-04-15T03:47:00.855Z,71.85
2023-04-15T03:49:27.214Z,71.08
2023-04-15T03:51:53.587Z,73.30
2023-04-15T03:54:19.925Z,72.03
2023-04-15T03:56:46.265Z,72.61
2023-04-15T03:59:12.718Z,73.70
2023-04-15T04:01:40.391Z,74.76
2023-04-15T04:04:07.039Z,74.02
2023-04-15T04:06:33.610Z,73.28
2023-04-15T04:09:00.136Z,74.70
2023-04-15T04:11:26.784Z,79.96
2023-04-15T04:13:53.192Z,77.43
2023-04-15T04:16:19.662Z,76.85
2023-04-15T04:18:47.527Z,77.77
2023-04-15T04:21:14.084Z,76.22
2023-04-15T04:23:40.574Z,75.79
2023-04-15T04:26:06.992Z,76.57
2023-04-15T04:28:33.433Z,76.74
2023-04-15T04:31:00.308Z,77.69
2023-04-15T04:33:26.698Z,76.66
2023-04-15T04:35:54.434Z,75.88
2023-04-15T04:38:20.845Z,78.24
2023-04-15T04:40:47.249Z,78.58
2023-04-15T04:43:13.645Z,77.35
2023-04-15T04:45:40.043Z,77.34
2023-04-15T04:48:06.504Z,77.19
2023-04-15T04:50:33.049Z,77.61
2023-04-15T04:53:00.769Z,79.48
2023-04-15T04:55:27.439Z,81.76
2023-04-15T04:57:53.885Z,79.55
2023-04-15T05:00:20.545Z,77.67
2023-04-15T05:02:47.051Z,78.96
2023-04-15T05:05:13.547Z,81.36
2023-04-15T05:07:39.910Z,79.52
2023-04-15T05:10:09.060Z,77.15
2023-04-15T05:12:35.813Z,78.36
2023-04-15T05:15:02.215Z,78.93
2023-04-15T05:17:28.687Z,79.29
2023-04-15T05:19:55.292Z,77.37
2023-04-15T05:22:21.703Z,80.68
2023-04-15T05:24:48.132Z,80.49
2023-04-15T05:27:15.868Z,79.39
2023-04-15T05:29:42.237Z,78.64
2023-04-15T05:32:08.637Z,80.19
2023-04-15T05:34:35.262Z,77.57
2023-04-15T05:37:01.681Z,78.70
2023-04-15T05:39:28.470Z,80.43
2023-04-15T05:41:55.100Z,82.64
2023-04-15T05:44:22.875Z,80.29
2023-04-15T05:46:49.368Z,78.51
2023-04-15T05:49:15.786Z,76.85
2023-04-15T05:51:42.259Z,79.05
2023-04-15T05:54:09.014Z,82.60
2023-04-15T05:56:35.607Z,81.15
2023-04-15T05:59:02.354Z,82.69
2023-04-15T06:01:30.299Z,80.66
2023-04-15T06:03:57.548Z,80.21
2023-04-15T06:06:24.143Z,80.97
2023-04-15T06:08:51.133Z,80.02
2023-04-15T06:11:17.819Z,80.86
2023-04-15T06:13:44.336Z,80.45
2023-04-15T06:16:10.784Z,81.11
2023-04-15T06:18:38.573Z,78.72
2023-04-15T06:21:05.116Z,78.58
2023-04-15T06:23:34.078Z,81.17
2023-04-15T06:26:00.475Z,81.88
2023-04-15T06:28:26.913Z,80.94
2023-04-15T06:30:53.650Z,80.21
2023-04-15T06:33:20.035Z,81.53
2023-04-15T06:35:47.790Z,79.04
2023-04-15T06:38:14.214Z,77.85
2023-04-15T06:40:40.659Z,78.00
2023-04-15T06:43:07.047Z,81.74
2023-04-15T06:45:33.468Z,81.09
2023-04-15T06:47:59.952Z,82.99
2023-04-15T06:50:26.541Z,80.26
2023-04-15T06:52:55.843Z,80.69
2023-04-15T06:55:22.787Z,81.42
2023-04-15T06:57:49.205Z,80.43
2023-04-15T07:00:15.829Z,80.97
2023-04-15T07:02:42.369Z,85.67
2023-04-15T07:05:09.165Z,84.15
2023-04-15T07:07:35.525Z,83.05
2023-04-15T07:10:03.545Z,80.55
2023-04-15T07:12:29.945Z,80.58
2023-04-15T07:14:56.367Z,82.76
2023-04-15T07:17:22.996Z,84.16
2023-04-15T07:19:49.420Z,81.32
2023-04-15T07:22:15.923Z,82.21
2023-04-15T07:24:42.349Z,81.36
2023-04-15T07:27:10.054Z,82.06
2023-04-15T07:29:36.424Z,80.16
2023-04-15T07:32:03.454Z,79.90
2023-04-15T07:34:31.440Z,82.77
2023-04-15T07:36:58.986Z,80.53
2023-04-15T07:39:25.357Z,82.60
2023-04-15T07:41:51.727Z,81.39
2023-04-15T07:44:19.473Z,79.93
2023-04-15T07:46:45.881Z,79.20
2023-04-15T07:49:12.248Z,79.70
2023-04-15T07:51:38.682Z,78.11
2023-04-15T07:54:05.127Z,79.68
2023-04-15T07:56:31.573Z,78.74
2023-04-15T07:59:00.782Z,77.36
2023-04-15T08:01:28.707Z,79.92
2023-04-15T08:03:55.247Z,78.91
2023-04-15T08:06:21.708Z,80.42
2023-04-15T08:08:48.242Z,78.70
2023-04-15T08:11:14.692Z,78.17
2023-04-15T08:13:41.087Z,78.73
2023-04-15T08:16:17.842Z,79.89
2023-04-15T08:18:45.701Z,80.00
2023-04-15T08:21:12.085Z,79.19
2023-04-15T08:23:38.925Z,81.91
2023-04-15T08:26:05.748Z,79.73
2023-04-15T08:28:32.297Z,78.33
2023-04-15T08:30:58.874Z,79.12
2023-04-15T08:33:25.546Z,79.51
2023-04-15T08:35:53.246Z,78.82
2023-04-15T08:38:19.643Z,81.90
2023-04-15T08:40:46.437Z,80.81
2023-04-15T08:43:18.593Z,82.90
2023-04-15T08:45:46.587Z,83.19
2023-04-15T08:48:15.149Z,84.67
2023-04-15T08:50:41.792Z,83.94
2023-04-15T08:53:10.517Z,80.21
2023-04-15T08:55:42.680Z,81.00
2023-04-15T08:58:09.981Z,81.52
2023-04-15T09:00:36.582Z,81.02
2023-04-15T09:03:04.460Z,81.73
2023-04-15T09:05:32.524Z,80.27
2023-04-15T09:07:59.073Z,81.22
2023-04-15T09:10:26.997Z,82.23
2023-04-15T09:12:53.407Z,81.52
2023-04-15T09:15:20.430Z,80.87
2023-04-15T09:17:47.203Z,78.84
2023-04-15T09:20:15.526Z,79.05
2023-04-15T09:22:43.305Z,78.89
2023-04-15T09:25:27.933Z,77.40
2023-04-15T09:27:55.698Z,80.90
2023-04-15T09:30:22.520Z,82.28
2023-04-15T09:32:50.102Z,80.29
2023-04-15T09:35:16.535Z,79.62
2023-04-15T09:37:43.028Z,79.16
2023-04-15T09:40:10.585Z,79.63
2023-04-15T09:42:54.235Z,77.81
2023-04-15T09:45:22.100Z,78.50
2023-04-15T09:47:48.615Z,78.18
2023-04-15T09:50:15.421Z,78.38
2023-04-15T09:52:43.035Z,78.49
2023-04-15T09:55:10.093Z,77.38
2023-04-15T09:57:39.425Z,78.05
2023-04-15T10:00:08.652Z,79.07
2023-04-15T10:02:36.875Z,80.25
2023-04-15T10:05:03.940Z,79.94
2023-04-15T10:07:30.681Z,79.03
2023-04-15T10:09:59.672Z,77.95
2023-04-15T10:12:27.505Z,78.35
2023-04-15T10:14:58.907Z,78.04
2023-04-15T10:17:27.921Z,78.40
2023-04-15T10:19:55.291Z,79.56
2023-04-15T10:22:22.699Z,78.51
2023-04-15T10:24:50.292Z,78.97
2023-04-15T10:27:17.922Z,79.33
2023-04-15T10:29:44.664Z,79.00
2023-04-15T10:32:13.375Z,79.50
2023-04-15T10:34:40.795Z,79.57
2023-04-15T10:37:10.004Z,81.08
2023-04-15T10:39:42.218Z,80.35
2023-04-15T10:42:11.058Z,80.29
2023-04-15T10:44:38.008Z,79.60
2023-04-15T10:47:10.368Z,84.76
2023-04-15T10:49:43.536Z,80.46
2023-04-15T10:52:10.000Z,81.22
2023-04-15T10:54:36.472Z,80.84
2023-04-15T10:57:14.408Z,79.31
2023-04-15T11:00:09.531Z,79.15
2023-04-15T11:02:41.732Z,78.47
2023-04-15T11:05:10.372Z,80.55
2023-04-15T11:07:39.145Z,79.32
2023-04-15T11:10:54.406Z,78.36
2023-04-15T11:13:25.888Z,78.08
2023-04-15T11:15:56.322Z,79.32
2023-04-15T11:18:25.797Z,78.62
2023-04-15T11:20:55.289Z,78.13
2023-04-15T11:23:29.618Z,83.63
2023-04-15T11:25:56.434Z,80.66
2023-04-15T11:28:25.827Z,83.35
2023-04-15T11:30:52.333Z,80.73
2023-04-15T11:33:18.795Z,83.93
2023-04-15T11:35:45.310Z,82.07
2023-04-15T11:38:14.682Z,79.52
2023-04-15T11:40:43.354Z,80.00
2023-04-15T11:43:12.946Z,80.08
2023-04-15T11:45:48.972Z,79.11
2023-04-15T11:48:15.460Z,80.60
2023-04-15T11:50:41.922Z,79.98
2023-04-15T11:53:09.808Z,81.38
2023-04-15T11:55:45.434Z,79.56
2023-04-15T11:58:16.138Z,79.53
2023-04-15T12:00:47.909Z,81.52
2023-04-15T12:03:18.148Z,83.61
2023-04-15T12:06:07.911Z,80.20
2023-04-15T12:09:07.799Z,82.44
2023-04-15T12:11:37.931Z,80.27
2023-04-15T12:14:07.162Z,79.58
2023-04-15T12:16:37.261Z,78.51
2023-04-15T12:19:17.595Z,81.06
2023-04-15T12:21:46.593Z,79.89
2023-04-15T12:24:12.994Z,79.00
2023-04-15T12:26:46.178Z,79.23
2023-04-15T12:29:13.610Z,81.03
2023-04-15T12:31:51.397Z,79.50
2023-04-15T12:34:20.147Z,80.63
2023-04-15T12:36:46.557Z,80.26
2023-04-15T12:39:13.454Z,81.55
2023-04-15T12:41:40.181Z,80.33
2023-04-15T12:44:08.114Z,80.70
2023-04-15T12:46:34.551Z,78.81
2023-04-15T12:49:01.291Z,81.25
2023-04-15T12:51:27.695Z,79.08
2023-04-15T12:53:54.104Z,81.36
2023-04-15T12:56:20.489Z,79.34
2023-04-15T12:58:46.855Z,77.96
2023-04-15T13:01:14.646Z,77.36
2023-04-15T13:03:41.320Z,77.03
2023-04-15T13:06:07.893Z,75.64
2023-04-15T13:08:34.848Z,74.44
2023-04-15T13:11:03.692Z,73.10
2023-04-15T13:13:30.133Z,76.63
2023-04-15T13:15:56.611Z,76.60
2023-04-15T13:18:24.485Z,75.52
2023-04-15T13:20:51.430Z,74.26
2023-04-15T13:23:18.063Z,74.83
2023-04-15T13:25:45.112Z,74.82
2023-04-15T13:28:11.937Z,73.47
2023-04-15T13:30:38.774Z,72.74
2023-04-15T13:33:05.690Z,73.91
2023-04-15T13:35:33.666Z,72.38
2023-04-15T13:38:01.176Z,72.13
2023-04-15T13:40:27.900Z,70.48
2023-04-15T13:42:54.373Z,70.09
2023-04-15T13:45:20.935Z,69.72
2023-04-15T13:47:47.524Z,66.40
2023-04-15T13:50:14.070Z,65.56
2023-04-15T13:52:41.791Z,65.36
2023-04-15T13:55:19.930Z,64.69
2023-04-15T13:57:47.335Z,63.97
2023-04-15T14:00:14.798Z,64.68
2023-04-15T14:02:49.442Z,63.32
2023-04-15T14:05:16.074Z,63.27
2023-04-15T14:07:42.528Z,63.69
2023-04-15T14:10:09.005Z,65.05
2023-04-15T14:12:35.741Z,64.68
2023-04-15T14:15:02.193Z,66.29
2023-04-15T14:17:28.702Z,65.53
2023-04-15T14:19:56.560Z,64.40
2023-04-15T14:22:22.985Z,66.16
2023-04-15T14:24:49.366Z,65.34
2023-04-15T14:27:15.774Z,63.19
2023-04-15T14:29:42.209Z,62.69
2023-04-15T14:32:11.375Z,62.46
2023-04-15T14:34:39.011Z,63.17
2023-04-15T14:37:06.757Z,63.44
2023-04-15T14:39:33.215Z,63.10
2023-04-15T14:41:59.654Z,63.16
2023-04-15T14:44:26.142Z,70.71
2023-04-15T14:46:52.643Z,67.07
2023-04-15T14:49:19.582Z,67.27
2023-04-15T14:51:45.986Z,65.84
2023-04-15T14:54:13.709Z,64.40
2023-04-15T14:56:40.194Z,64.46
2023-04-15T14:59:06.720Z,65.13
2023-04-15T15:01:33.569Z,63.74
2023-04-15T15:04:00.296Z,63.77
2023-04-15T15:06:26.735Z,61.32
2023-04-15T15:08:53.215Z,61.95
2023-04-15T15:11:20.956Z,62.14
2023-04-15T15:13:47.368Z,61.86
2023-04-15T15:16:14.708Z,60.36
2023-04-15T15:18:41.440Z,61.64
2023-04-15T15:21:07.910Z,61.21
2023-04-15T15:23:34.403Z,61.00
2023-04-15T15:26:00.915Z,61.63
2023-04-15T15:28:28.716Z,62.39
2023-04-15T15:30:55.245Z,63.66
2023-04-15T15:33:21.732Z,63.05
2023-04-15T15:35:48.174Z,65.14
2023-04-15T15:38:14.717Z,64.85
2023-04-15T15:40:41.122Z,63.08
2023-04-15T15:43:07.793Z,62.90
2023-04-15T15:45:35.735Z,64.18
2023-04-15T15:48:02.418Z,65.51
2023-04-15T15:50:29.068Z,63.87
2023-04-15T15:52:55.663Z,65.74
2023-04-15T15:55:22.074Z,66.30
2023-04-15T15:57:48.468Z,67.17
2023-04-15T16:00:15.505Z,64.70
2023-04-15T16:05:13.993Z,65.99
2023-04-15T16:07:40.487Z,67.95
2023-04-15T16:10:07.986Z,66.68
2023-04-15T16:12:35.060Z,65.49
2023-04-15T16:15:01.688Z,64.24
2023-04-15T16:17:28.145Z,66.33
2023-04-15T16:20:00.538Z,67.43
2023-04-15T16:22:27.931Z,65.33
2023-04-15T16:24:54.412Z,67.19
2023-04-15T16:27:20.891Z,66.08
2023-04-15T16:29:47.313Z,66.39
2023-04-15T16:32:13.783Z,65.94
2023-04-15T16:34:40.315Z,68.56
2023-04-15T16:37:08.124Z,70.17
2023-04-15T16:39:34.911Z,70.22
2023-04-15T16:42:01.908Z,69.94
2023-04-15T16:44:28.401Z,70.88
2023-04-15T16:46:54.813Z,71.31
2023-04-15T16:49:21.177Z,70.96
2023-04-15T16:51:47.634Z,72.47
2023-04-15T16:54:15.392Z,70.74
2023-04-15T16:56:41.808Z,70.69
2023-04-15T16:59:08.225Z,72.69
2023-04-15T17:01:34.800Z,70.84
2023-04-15T17:04:01.305Z,69.75
2023-04-15T17:06:27.840Z,69.68
2023-04-15T17:08:54.250Z,68.56
2023-04-15T17:11:21.951Z,69.45
2023-04-15T17:13:48.527Z,68.69
2023-04-15T17:16:14.912Z,68.82
2023-04-15T17:18:41.353Z,69.98
2023-04-15T17:21:07.787Z,70.19
2023-04-15T17:23:34.169Z,70.29
2023-04-15T17:26:00.587Z,70.86
2023-04-15T17:28:28.509Z,71.02
2023-04-15T17:30:55.153Z,70.30
2023-04-15T17:33:55.309Z,68.97
2023-04-15T17:36:08.186Z,68.15
2023-04-15T17:38:34.586Z,69.83
2023-04-15T17:41:01.080Z,68.69
2023-04-15T17:43:28.784Z,68.00
2023-04-15T17:45:56.203Z,67.76
2023-04-15T17:48:25.077Z,68.52
2023-04-15T17:50:52.065Z,67.97
2023-04-15T17:53:18.610Z,67.45
2023-04-15T17:55:44.992Z,66.83
2023-04-15T17:58:11.512Z,67.69
2023-04-15T18:00:39.212Z,67.43
2023-04-15T18:03:05.727Z,67.05
2023-04-15T18:05:32.532Z,66.71
2023-04-15T18:07:59.053Z,67.02
2023-04-15T18:10:25.457Z,66.42
2023-04-15T18:12:51.834Z,67.02
2023-04-15T18:15:19.098Z,66.46
2023-04-15T18:17:47.810Z,66.95
2023-04-15T18:20:14.327Z,67.79
2023-04-15T18:22:42.120Z,66.43
2023-04-15T18:25:09.004Z,67.21
2023-04-15T18:27:36.544Z,67.49
2023-04-15T18:30:03.144Z,67.89
2023-04-15T18:32:31.817Z,67.96
2023-04-15T18:34:59.928Z,68.29
2023-04-15T18:37:26.424Z,67.88
2023-04-15T18:39:52.845Z,68.09
2023-04-15T18:42:19.278Z,69.29
2023-04-15T18:44:45.696Z,69.73
2023-04-15T18:47:12.178Z,68.66
2023-04-15T18:49:38.609Z,68.21
2023-04-15T18:52:06.463Z,68.48
2023-04-15T18:54:32.879Z,68.22
2023-04-15T18:56:59.304Z,68.20
2023-04-15T18:59:30.145Z,68.27
2023-04-15T19:01:57.773Z,68.13
2023-04-15T19:04:24.185Z,68.32
2023-04-15T19:06:50.828Z,69.31
2023-04-15T19:09:18.549Z,69.25
2023-04-15T19:11:45.075Z,68.32
2023-04-15T19:14:11.526Z,69.26
2023-04-15T19:16:38.049Z,68.62
2023-04-15T19:19:04.666Z,68.81
2023-04-15T19:21:31.963Z,68.45
2023-04-15T19:23:59.391Z,68.37
2023-04-15T19:26:27.263Z,69.08
2023-04-15T19:28:53.762Z,68.61
2023-04-15T19:31:20.304Z,67.55
2023-04-15T19:33:46.855Z,69.12
2023-04-15T19:36:13.241Z,69.70
2023-04-15T19:38:39.633Z,68.62
2023-04-15T19:41:06.184Z,67.88
2023-04-15T19:43:33.861Z,68.36
2023-04-15T19:46:00.305Z,67.62
2023-04-15T19:48:26.956Z,67.33
2023-04-15T19:50:53.419Z,67.42
2023-04-15T19:53:19.828Z,67.39
2023-04-15T19:55:46.246Z,67.13
2023-04-15T19:58:12.636Z,66.90
2023-04-15T20:00:40.346Z,67.18
2023-04-15T20:03:06.896Z,68.90
2023-04-15T20:05:33.310Z,68.01
2023-04-15T20:08:00.764Z,68.01
2023-04-15T20:10:27.185Z,67.49
2023-04-15T20:12:53.682Z,67.01
2023-04-15T20:15:20.759Z,66.99
2023-04-15T20:17:48.516Z,66.28
2023-04-15T20:20:15.250Z,66.90
2023-04-15T20:22:41.770Z,65.87
2023-04-15T20:25:08.758Z,67.64
2023-04-15T20:27:35.188Z,66.00
2023-04-15T20:30:01.667Z,66.48
2023-04-15T20:32:28.319Z,66.40
2023-04-15T20:34:56.230Z,66.27
2023-04-15T20:37:22.594Z,65.94
2023-04-15T20:39:49.160Z,65.57
2023-04-15T20:42:15.533Z,65.82
2023-04-15T20:44:41.909Z,65.25
2023-04-15T20:47:08.495Z,65.00
2023-04-15T20:49:35.845Z,65.59
2023-04-15T20:52:05.034Z,64.62
2023-04-15T20:54:31.462Z,64.98
2023-04-15T20:56:57.976Z,64.82
2023-04-15T20:59:24.506Z,65.53
2023-04-15T21:01:51.133Z,65.89
2023-04-15T21:04:17.575Z,64.67
2023-04-15T21:06:43.965Z,65.20
2023-04-15T21:09:11.664Z,64.92
2023-04-15T21:11:57.430Z,65.23
2023-04-15T21:14:24.488Z,65.52
2023-04-15T21:16:50.940Z,66.18
2023-04-15T21:19:17.348Z,65.68
2023-04-15T21:21:43.812Z,65.05
2023-04-15T21:24:12.635Z,66.05
2023-04-15T21:26:39.168Z,65.92
2023-04-15T21:29:07.919Z,66.38
2023-04-15T21:31:36.044Z,65.66
2023-04-15T21:34:02.451Z,65.99
2023-04-15T21:36:28.893Z,65.90
2023-04-15T21:38:55.302Z,66.05
2023-04-15T21:41:23.114Z,66.00
2023-04-15T21:43:49.575Z,66.79
2023-04-15T21:46:22.868Z,67.58
2023-04-15T21:48:51.218Z,66.90
2023-04-15T21:51:17.648Z,67.18
2023-04-15T21:53:44.054Z,66.94
2023-04-15T21:56:10.504Z,67.83
2023-04-15T21:58:38.206Z,67.95
2023-04-15T22:01:04.840Z,67.87
2023-04-15T22:03:32.490Z,67.83
2023-04-15T22:05:59.121Z,67.46
2023-04-15T22:08:25.530Z,68.02
2023-04-15T22:10:51.909Z,68.60
2023-04-15T22:13:18.293Z,68.10
2023-04-15T22:15:46.164Z,67.86
2023-04-15T22:18:13.121Z,67.43
2023-04-15T22:20:39.953Z,67.23
2023-04-15T22:23:06.375Z,68.00
2023-04-15T22:25:33.154Z,67.61
2023-04-15T22:27:59.594Z,68.05
2023-04-15T22:30:26.440Z,68.54
2023-04-15T22:32:54.230Z,68.36
2023-04-15T22:35:20.654Z,69.07
2023-04-15T22:37:46.997Z,68.36
2023-04-15T22:40:13.950Z,68.59
2023-04-15T22:42:40.315Z,68.37
2023-04-15T22:45:08.222Z,69.73
2023-04-15T22:47:34.658Z,68.55
2023-04-15T22:50:02.394Z,69.09
2023-04-15T22:52:31.014Z,68.06
2023-04-15T22:54:58.056Z,69.32
2023-04-15T22:57:24.803Z,69.10
2023-04-15T22:59:51.271Z,69.42
2023-04-15T23:02:17.950Z,69.52
2023-04-15T23:04:44.562Z,69.36
2023-04-15T23:07:12.364Z,69.15
2023-04-15T23:09:38.893Z,68.68
2023-04-15T23:12:05.548Z,69.28
2023-04-15T23:14:31.937Z,69.17
2023-04-15T23:16:58.459Z,69.31
2023-04-15T23:19:25.007Z,69.84
2023-04-15T23:21:51.477Z,69.76
2023-04-15T23:24:19.168Z,69.83
2023-04-15T23:26:45.508Z,69.52
2023-04-15T23:29:12.012Z,70.57
2023-04-15T23:31:38.494Z,69.90
2023-04-15T23:34:04.935Z,69.23
2023-04-15T23:36:31.296Z,69.87
2023-04-15T23:38:57.666Z,70.39
2023-04-15T23:41:25.363Z,72.87
2023-04-15T23:43:51.831Z,71.49
2023-04-15T23:46:18.242Z,70.08
2023-04-15T23:48:44.612Z,71.53
2023-04-15T23:51:10.970Z,70.26
2023-04-15T23:53:37.355Z,69.65
2023-04-15T23:56:04.345Z,69.65
2023-04-15T23:58:34.003Z,70.29
